sensor_id;sensor_type;location;lat;lon;timestamp;P1;durP1;ratioP1;P2;durP2;ratioP2
3817;SDS011;1924;48.078;11.516;2022-07-23T00:01:13;35.30;;;0.80;;
3817;SDS011;1924;48.078;11.516;2022-07-23T00:03:40;35.33;;;0.80;;
3817;SDS011;1924;48.078;11.516;2022-07-23T00:06:06;35.07;;;0.80;;
3817;SDS011;1924;48.078;11.516;2022-07-23T00:08:33;35.33;;;0.80;;
3817;SDS011;1924;48.078;11.516;2022-07-23T00:13:43;35.37;;;0.80;;
3817;SDS011;1924;48.078;11.516;2022-07-23T00:16:10;35.30;;;0.80;;
3817;SDS011;1924;48.078;11.516;2022-07-23T00:18:37;35.33;;;0.80;;
3817;SDS011;1924;48.078;11.516;2022-07-23T00:21:06;35.30;;;0.80;;
3817;SDS011;1924;48.078;11.516;2022-07-23T00:23:33;35.27;;;0.80;;
3817;SDS011;1924;48.078;11.516;2022-07-23T00:26:00;35.33;;;0.80;;
3817;SDS011;1924;48.078;11.516;2022-07-23T00:28:34;35.23;;;0.80;;
3817;SDS011;1924;48.078;11.516;2022-07-23T00:31:02;35.27;;;0.80;;
3817;SDS011;1924;48.078;11.516;2022-07-23T00:33:29;35.40;;;0.80;;
3817;SDS011;1924;48.078;11.516;2022-07-23T00:35:56;35.20;;;0.80;;
3817;SDS011;1924;48.078;11.516;2022-07-23T00:38:22;34.97;;;0.80;;
3817;SDS011;1924;48.078;11.516;2022-07-23T00:40:49;35.07;;;0.80;;
3817;SDS011;1924;48.078;11.516;2022-07-23T00:43:16;35.17;;;0.80;;
3817;SDS011;1924;48.078;11.516;2022-07-23T00:45:45;35.03;;;0.80;;
3817;SDS011;1924;48.078;11.516;2022-07-23T00:48:13;35.07;;;0.80;;
3817;SDS011;1924;48.078;11.516;2022-07-23T00:50:40;35.23;;;0.80;;
3817;SDS011;1924;48.078;11.516;2022-07-23T00:53:08;35.27;;;0.80;;
3817;SDS011;1924;48.078;11.516;2022-07-23T00:55:35;35.07;;;0.80;;
3817;SDS011;1924;48.078;11.516;2022-07-23T00:58:02;34.93;;;0.80;;
3817;SDS011;1924;48.078;11.516;2022-07-23T01:00:29;35.17;;;0.80;;
3817;SDS011;1924;48.078;11.516;2022-07-23T01:02:56;35.03;;;0.80;;
3817;SDS011;1924;48.078;11.516;2022-07-23T01:05:26;35.03;;;0.80;;
3817;SDS011;1924;48.078;11.516;2022-07-23T01:07:52;35.27;;;0.80;;
3817;SDS011;1924;48.078;11.516;2022-07-23T01:10:19;35.20;;;0.80;;
3817;SDS011;1924;48.078;11.516;2022-07-23T01:13:01;35.27;;;0.80;;
3817;SDS011;1924;48.078;11.516;2022-07-23T01:15:29;35.30;;;0.80;;
3817;SDS011;1924;48.078;11.516;2022-07-23T01:17:57;35.33;;;0.80;;
3817;SDS011;1924;48.078;11.516;2022-07-23T01:20:25;35.40;;;0.80;;
3817;SDS011;1924;48.078;11.516;2022-07-23T01:22:53;35.27;;;0.80;;
3817;SDS011;1924;48.078;11.516;2022-07-23T01:25:20;35.30;;;0.90;;
3817;SDS011;1924;48.078;11.516;2022-07-23T01:27:47;35.37;;;0.80;;
3817;SDS011;1924;48.078;11.516;2022-07-23T01:30:15;35.60;;;0.90;;
3817;SDS011;1924;48.078;11.516;2022-07-23T01:32:41;35.67;;;0.80;;
3817;SDS011;1924;48.078;11.516;2022-07-23T01:35:08;35.57;;;0.80;;
3817;SDS011;1924;48.078;11.516;2022-07-23T01:37:36;35.77;;;0.80;;
3817;SDS011;1924;48.078;11.516;2022-07-23T01:40:05;35.73;;;0.80;;
3817;SDS011;1924;48.078;11.516;2022-07-23T01:42:32;35.67;;;0.80;;
3817;SDS011;1924;48.078;11.516;2022-07-23T01:44:59;35.53;;;0.80;;
3817;SDS011;1924;48.078;11.516;2022-07-23T01:47:26;35.60;;;0.90;;
3817;SDS011;1924;48.078;11.516;2022-07-23T01:49:53;35.20;;;0.80;;
3817;SDS011;1924;48.078;11.516;2022-07-23T01:52:19;35.33;;;0.80;;
3817;SDS011;1924;48.078;11.516;2022-07-23T01:54:46;35.23;;;0.80;;
3817;SDS011;1924;48.078;11.516;2022-07-23T01:57:14;35.40;;;0.80;;
3817;SDS011;1924;48.078;11.516;2022-07-23T01:59:41;35.30;;;0.80;;
3817;SDS011;1924;48.078;11.516;2022-07-23T02:02:08;35.33;;;0.80;;
3817;SDS011;1924;48.078;11.516;2022-07-23T02:04:35;35.17;;;0.80;;
3817;SDS011;1924;48.078;11.516;2022-07-23T02:07:02;35.17;;;0.80;;
3817;SDS011;1924;48.078;11.516;2022-07-23T02:09:29;35.20;;;0.80;;
3817;SDS011;1924;48.078;11.516;2022-07-23T02:11:56;35.00;;;0.80;;
3817;SDS011;1924;48.078;11.516;2022-07-23T02:14:24;34.57;;;0.80;;
3817;SDS011;1924;48.078;11.516;2022-07-23T02:16:51;34.87;;;0.80;;
3817;SDS011;1924;48.078;11.516;2022-07-23T02:19:18;35.07;;;0.80;;
3817;SDS011;1924;48.078;11.516;2022-07-23T02:21:45;35.00;;;0.80;;
3817;SDS011;1924;48.078;11.516;2022-07-23T02:24:12;35.07;;;0.80;;
3817;SDS011;1924;48.078;11.516;2022-07-23T02:26:39;35.07;;;0.80;;
3817;SDS011;1924;48.078;11.516;2022-07-23T02:29:05;34.97;;;0.80;;
3817;SDS011;1924;48.078;11.516;2022-07-23T02:31:34;34.87;;;0.80;;
3817;SDS011;1924;48.078;11.516;2022-07-23T02:34:01;34.97;;;0.80;;
3817;SDS011;1924;48.078;11.516;2022-07-23T02:36:28;35.10;;;0.80;;
3817;SDS011;1924;48.078;11.516;2022-07-23T02:38:55;35.07;;;0.80;;
3817;SDS011;1924;48.078;11.516;2022-07-23T02:41:22;35.10;;;0.80;;
3817;SDS011;1924;48.078;11.516;2022-07-23T02:43:49;34.77;;;0.80;;
3817;SDS011;1924;48.078;11.516;2022-07-23T02:46:16;34.80;;;0.80;;
3817;SDS011;1924;48.078;11.516;2022-07-23T02:48:44;34.80;;;0.80;;
3817;SDS011;1924;48.078;11.516;2022-07-23T02:51:11;34.97;;;0.80;;
3817;SDS011;1924;48.078;11.516;2022-07-23T02:53:38;34.87;;;0.80;;
3817;SDS011;1924;48.078;11.516;2022-07-23T02:56:04;35.03;;;0.80;;
3817;SDS011;1924;48.078;11.516;2022-07-23T02:58:31;34.93;;;0.80;;
3817;SDS011;1924;48.078;11.516;2022-07-23T03:00:58;34.97;;;0.90;;
3817;SDS011;1924;48.078;11.516;2022-07-23T03:03:25;35.00;;;0.80;;
3817;SDS011;1924;48.078;11.516;2022-07-23T03:05:53;35.07;;;0.80;;
3817;SDS011;1924;48.078;11.516;2022-07-23T03:08:19;35.30;;;0.80;;
3817;SDS011;1924;48.078;11.516;2022-07-23T03:10:46;35.13;;;0.80;;
3817;SDS011;1924;48.078;11.516;2022-07-23T03:13:13;35.20;;;0.80;;
3817;SDS011;1924;48.078;11.516;2022-07-23T03:15:39;35.20;;;0.80;;
3817;SDS011;1924;48.078;11.516;2022-07-23T03:18:06;35.03;;;0.80;;
3817;SDS011;1924;48.078;11.516;2022-07-23T03:20:33;35.13;;;0.80;;
3817;SDS011;1924;48.078;11.516;2022-07-23T03:23:01;35.53;;;0.80;;
3817;SDS011;1924;48.078;11.516;2022-07-23T03:25:28;35.27;;;0.80;;
3817;SDS011;1924;48.078;11.516;2022-07-23T03:27:54;35.37;;;0.80;;
3817;SDS011;1924;48.078;11.516;2022-07-23T03:30:21;35.37;;;0.80;;
3817;SDS011;1924;48.078;11.516;2022-07-23T03:32:48;35.37;;;0.80;;
3817;SDS011;1924;48.078;11.516;2022-07-23T03:35:15;35.67;;;0.80;;
3817;SDS011;1924;48.078;11.516;2022-07-23T03:37:41;35.57;;;0.80;;
3817;SDS011;1924;48.078;11.516;2022-07-23T03:40:10;35.60;;;0.80;;
3817;SDS011;1924;48.078;11.516;2022-07-23T03:42:37;35.47;;;0.80;;
3817;SDS011;1924;48.078;11.516;2022-07-23T03:45:06;35.70;;;0.80;;
3817;SDS011;1924;48.078;11.516;2022-07-23T03:47:33;35.70;;;0.80;;
3817;SDS011;1924;48.078;11.516;2022-07-23T03:50:00;35.47;;;0.80;;
3817;SDS011;1924;48.078;11.516;2022-07-23T03:52:27;35.57;;;0.80;;
3817;SDS011;1924;48.078;11.516;2022-07-23T03:54:53;35.47;;;0.80;;
3817;SDS011;1924;48.078;11.516;2022-07-23T03:57:21;35.57;;;0.80;;
3817;SDS011;1924;48.078;11.516;2022-07-23T03:59:48;35.67;;;0.80;;
3817;SDS011;1924;48.078;11.516;2022-07-23T04:02:15;35.73;;;0.80;;
3817;SDS011;1924;48.078;11.516;2022-07-23T04:04:41;35.63;;;0.80;;
3817;SDS011;1924;48.078;11.516;2022-07-23T04:07:08;35.37;;;0.80;;
3817;SDS011;1924;48.078;11.516;2022-07-23T04:09:35;35.57;;;0.80;;
3817;SDS011;1924;48.078;11.516;2022-07-23T04:12:02;35.57;;;0.80;;
3817;SDS011;1924;48.078;11.516;2022-07-23T04:14:30;35.70;;;0.80;;
3817;SDS011;1924;48.078;11.516;2022-07-23T04:16:57;35.47;;;0.80;;
3817;SDS011;1924;48.078;11.516;2022-07-23T04:19:23;35.60;;;0.80;;
3817;SDS011;1924;48.078;11.516;2022-07-23T04:21:50;35.73;;;0.80;;
3817;SDS011;1924;48.078;11.516;2022-07-23T04:24:17;35.53;;;0.80;;
3817;SDS011;1924;48.078;11.516;2022-07-23T04:26:44;35.70;;;0.80;;
3817;SDS011;1924;48.078;11.516;2022-07-23T04:29:11;35.63;;;0.80;;
3817;SDS011;1924;48.078;11.516;2022-07-23T04:31:39;35.53;;;0.80;;
3817;SDS011;1924;48.078;11.516;2022-07-23T04:34:06;35.67;;;0.80;;
3817;SDS011;1924;48.078;11.516;2022-07-23T04:36:32;35.67;;;0.80;;
3817;SDS011;1924;48.078;11.516;2022-07-23T04:38:59;35.77;;;0.80;;
3817;SDS011;1924;48.078;11.516;2022-07-23T04:41:26;35.57;;;0.80;;
3817;SDS011;1924;48.078;11.516;2022-07-23T04:43:53;35.70;;;0.80;;
3817;SDS011;1924;48.078;11.516;2022-07-23T04:46:20;35.57;;;0.80;;
3817;SDS011;1924;48.078;11.516;2022-07-23T04:48:48;35.53;;;0.80;;
3817;SDS011;1924;48.078;11.516;2022-07-23T04:51:14;35.53;;;0.80;;
3817;SDS011;1924;48.078;11.516;2022-07-23T04:53:41;35.77;;;0.80;;
3817;SDS011;1924;48.078;11.516;2022-07-23T04:56:08;35.73;;;0.80;;
3817;SDS011;1924;48.078;11.516;2022-07-23T04:58:35;35.47;;;0.80;;
3817;SDS011;1924;48.078;11.516;2022-07-23T05:01:01;35.77;;;0.80;;
3817;SDS011;1924;48.078;11.516;2022-07-23T05:03:28;35.60;;;0.80;;
3817;SDS011;1924;48.078;11.516;2022-07-23T05:05:56;35.67;;;0.80;;
3817;SDS011;1924;48.078;11.516;2022-07-23T05:08:23;35.60;;;0.80;;
3817;SDS011;1924;48.078;11.516;2022-07-23T05:10:50;35.67;;;0.80;;
3817;SDS011;1924;48.078;11.516;2022-07-23T05:13:17;35.67;;;0.80;;
3817;SDS011;1924;48.078;11.516;2022-07-23T05:15:50;35.73;;;0.80;;
3817;SDS011;1924;48.078;11.516;2022-07-23T05:18:16;35.47;;;0.80;;
3817;SDS011;1924;48.078;11.516;2022-07-23T05:20:43;35.63;;;0.80;;
3817;SDS011;1924;48.078;11.516;2022-07-23T05:23:11;35.80;;;0.80;;
3817;SDS011;1924;48.078;11.516;2022-07-23T05:25:39;35.33;;;0.80;;
3817;SDS011;1924;48.078;11.516;2022-07-23T05:28:06;35.70;;;0.80;;
3817;SDS011;1924;48.078;11.516;2022-07-23T05:30:32;35.63;;;0.80;;
3817;SDS011;1924;48.078;11.516;2022-07-23T05:32:59;35.63;;;0.80;;
3817;SDS011;1924;48.078;11.516;2022-07-23T05:35:26;35.67;;;0.80;;
3817;SDS011;1924;48.078;11.516;2022-07-23T05:37:53;35.77;;;0.80;;
3817;SDS011;1924;48.078;11.516;2022-07-23T05:40:21;35.70;;;0.80;;
3817;SDS011;1924;48.078;11.516;2022-07-23T05:42:48;35.43;;;0.80;;
3817;SDS011;1924;48.078;11.516;2022-07-23T05:45:14;35.80;;;0.80;;
3817;SDS011;1924;48.078;11.516;2022-07-23T05:47:42;35.63;;;0.80;;
3817;SDS011;1924;48.078;11.516;2022-07-23T05:50:11;35.53;;;0.80;;
3817;SDS011;1924;48.078;11.516;2022-07-23T05:52:38;35.67;;;0.80;;
3817;SDS011;1924;48.078;11.516;2022-07-23T05:55:05;35.70;;;0.80;;
3817;SDS011;1924;48.078;11.516;2022-07-23T05:57:34;35.73;;;0.80;;
3817;SDS011;1924;48.078;11.516;2022-07-23T06:00:01;35.70;;;0.80;;
3817;SDS011;1924;48.078;11.516;2022-07-23T06:02:30;35.73;;;0.80;;
3817;SDS011;1924;48.078;11.516;2022-07-23T06:04:56;35.77;;;0.80;;
3817;SDS011;1924;48.078;11.516;2022-07-23T06:07:23;35.77;;;0.80;;
3817;SDS011;1924;48.078;11.516;2022-07-23T06:09:50;35.67;;;0.80;;
3817;SDS011;1924;48.078;11.516;2022-07-23T06:12:17;35.73;;;0.80;;
3817;SDS011;1924;48.078;11.516;2022-07-23T06:14:45;35.70;;;0.80;;
3817;SDS011;1924;48.078;11.516;2022-07-23T06:17:14;35.80;;;0.80;;
3817;SDS011;1924;48.078;11.516;2022-07-23T06:19:41;35.70;;;0.80;;
3817;SDS011;1924;48.078;11.516;2022-07-23T06:22:08;35.80;;;0.90;;
3817;SDS011;1924;48.078;11.516;2022-07-23T06:24:35;35.87;;;0.80;;
3817;SDS011;1924;48.078;11.516;2022-07-23T06:27:02;35.80;;;0.80;;
3817;SDS011;1924;48.078;11.516;2022-07-23T06:29:29;35.73;;;0.80;;
3817;SDS011;1924;48.078;11.516;2022-07-23T06:31:57;35.93;;;0.80;;
3817;SDS011;1924;48.078;11.516;2022-07-23T06:34:24;35.80;;;0.80;;
3817;SDS011;1924;48.078;11.516;2022-07-23T06:36:50;35.67;;;0.80;;
3817;SDS011;1924;48.078;11.516;2022-07-23T06:39:17;35.57;;;0.80;;
3817;SDS011;1924;48.078;11.516;2022-07-23T06:41:44;35.57;;;0.80;;
3817;SDS011;1924;48.078;11.516;2022-07-23T06:44:10;35.50;;;0.80;;
3817;SDS011;1924;48.078;11.516;2022-07-23T06:46:37;35.27;;;0.80;;
3817;SDS011;1924;48.078;11.516;2022-07-23T06:49:05;35.57;;;0.80;;
3817;SDS011;1924;48.078;11.516;2022-07-23T06:51:32;35.57;;;0.80;;
3817;SDS011;1924;48.078;11.516;2022-07-23T06:53:59;35.47;;;0.80;;
3817;SDS011;1924;48.078;11.516;2022-07-23T06:56:26;35.70;;;0.80;;
3817;SDS011;1924;48.078;11.516;2022-07-23T06:58:52;35.80;;;0.80;;
3817;SDS011;1924;48.078;11.516;2022-07-23T07:01:19;35.70;;;0.80;;
3817;SDS011;1924;48.078;11.516;2022-07-23T07:03:46;35.77;;;0.80;;
3817;SDS011;1924;48.078;11.516;2022-07-23T07:06:15;35.63;;;0.80;;
3817;SDS011;1924;48.078;11.516;2022-07-23T07:08:42;35.47;;;0.80;;
3817;SDS011;1924;48.078;11.516;2022-07-23T07:11:09;35.67;;;0.80;;
3817;SDS011;1924;48.078;11.516;2022-07-23T07:13:36;35.77;;;0.80;;
3817;SDS011;1924;48.078;11.516;2022-07-23T07:16:03;35.70;;;0.80;;
3817;SDS011;1924;48.078;11.516;2022-07-23T07:18:30;35.53;;;0.80;;
3817;SDS011;1924;48.078;11.516;2022-07-23T07:20:57;35.50;;;0.80;;
3817;SDS011;1924;48.078;11.516;2022-07-23T07:23:25;35.57;;;0.80;;
3817;SDS011;1924;48.078;11.516;2022-07-23T07:25:52;35.63;;;0.80;;
3817;SDS011;1924;48.078;11.516;2022-07-23T07:28:19;35.37;;;0.80;;
3817;SDS011;1924;48.078;11.516;2022-07-23T07:30:45;35.33;;;0.80;;
3817;SDS011;1924;48.078;11.516;2022-07-23T07:33:12;35.40;;;0.80;;
3817;SDS011;1924;48.078;11.516;2022-07-23T07:35:39;35.47;;;0.80;;
3817;SDS011;1924;48.078;11.516;2022-07-23T07:38:06;35.53;;;0.80;;
3817;SDS011;1924;48.078;11.516;2022-07-23T07:40:34;35.40;;;0.80;;
3817;SDS011;1924;48.078;11.516;2022-07-23T07:43:01;35.63;;;0.80;;
3817;SDS011;1924;48.078;11.516;2022-07-23T07:45:29;35.60;;;0.80;;
3817;SDS011;1924;48.078;11.516;2022-07-23T07:47:57;35.47;;;0.80;;
3817;SDS011;1924;48.078;11.516;2022-07-23T07:50:24;35.30;;;0.80;;
3817;SDS011;1924;48.078;11.516;2022-07-23T07:52:51;35.40;;;0.80;;
3817;SDS011;1924;48.078;11.516;2022-07-23T07:55:17;35.30;;;0.80;;
3817;SDS011;1924;48.078;11.516;2022-07-23T07:57:46;35.43;;;0.80;;
3817;SDS011;1924;48.078;11.516;2022-07-23T08:00:13;35.47;;;0.80;;
3817;SDS011;1924;48.078;11.516;2022-07-23T08:02:41;35.60;;;0.80;;
3817;SDS011;1924;48.078;11.516;2022-07-23T08:05:09;35.43;;;0.80;;
3817;SDS011;1924;48.078;11.516;2022-07-23T08:07:36;35.47;;;0.80;;
3817;SDS011;1924;48.078;11.516;2022-07-23T08:10:04;35.43;;;0.80;;
3817;SDS011;1924;48.078;11.516;2022-07-23T08:12:39;35.53;;;0.80;;
3817;SDS011;1924;48.078;11.516;2022-07-23T08:15:09;35.30;;;0.80;;
3817;SDS011;1924;48.078;11.516;2022-07-23T08:17:36;35.20;;;0.80;;
3817;SDS011;1924;48.078;11.516;2022-07-23T08:20:04;35.40;;;0.80;;
3817;SDS011;1924;48.078;11.516;2022-07-23T08:22:41;35.50;;;0.80;;
3817;SDS011;1924;48.078;11.516;2022-07-23T08:25:12;35.13;;;0.80;;
3817;SDS011;1924;48.078;11.516;2022-07-23T08:27:40;35.33;;;0.80;;
3817;SDS011;1924;48.078;11.516;2022-07-23T08:30:07;35.27;;;0.80;;
3817;SDS011;1924;48.078;11.516;2022-07-23T08:35:21;35.33;;;0.80;;
3817;SDS011;1924;48.078;11.516;2022-07-23T08:37:49;35.40;;;0.80;;
3817;SDS011;1924;48.078;11.516;2022-07-23T08:40:16;35.27;;;0.80;;
3817;SDS011;1924;48.078;11.516;2022-07-23T08:42:43;35.17;;;0.80;;
3817;SDS011;1924;48.078;11.516;2022-07-23T08:45:14;35.17;;;0.80;;
3817;SDS011;1924;48.078;11.516;2022-07-23T08:47:42;35.17;;;0.80;;
3817;SDS011;1924;48.078;11.516;2022-07-23T08:50:10;35.13;;;0.80;;
3817;SDS011;1924;48.078;11.516;2022-07-23T08:52:37;35.20;;;0.80;;
3817;SDS011;1924;48.078;11.516;2022-07-23T08:55:06;35.50;;;0.80;;
3817;SDS011;1924;48.078;11.516;2022-07-23T08:57:34;35.37;;;0.80;;
3817;SDS011;1924;48.078;11.516;2022-07-23T09:00:02;35.23;;;0.80;;
3817;SDS011;1924;48.078;11.516;2022-07-23T09:02:31;35.40;;;0.80;;
3817;SDS011;1924;48.078;11.516;2022-07-23T09:05:05;35.30;;;0.80;;
3817;SDS011;1924;48.078;11.516;2022-07-23T09:07:32;35.47;;;0.80;;
3817;SDS011;1924;48.078;11.516;2022-07-23T09:10:04;35.43;;;0.80;;
3817;SDS011;1924;48.078;11.516;2022-07-23T09:12:32;35.60;;;0.80;;
3817;SDS011;1924;48.078;11.516;2022-07-23T09:15:03;35.23;;;0.80;;
3817;SDS011;1924;48.078;11.516;2022-07-23T09:17:37;35.37;;;0.80;;
3817;SDS011;1924;48.078;11.516;2022-07-23T09:20:09;35.57;;;0.80;;
3817;SDS011;1924;48.078;11.516;2022-07-23T09:22:37;35.33;;;0.80;;
3817;SDS011;1924;48.078;11.516;2022-07-23T09:25:05;35.47;;;0.80;;
3817;SDS011;1924;48.078;11.516;2022-07-23T09:27:47;35.20;;;0.80;;
3817;SDS011;1924;48.078;11.516;2022-07-23T09:30:18;35.20;;;0.80;;
3817;SDS011;1924;48.078;11.516;2022-07-23T09:33:04;35.53;;;0.80;;
3817;SDS011;1924;48.078;11.516;2022-07-23T09:35:45;35.30;;;0.80;;
3817;SDS011;1924;48.078;11.516;2022-07-23T09:38:14;35.30;;;0.80;;
3817;SDS011;1924;48.078;11.516;2022-07-23T09:40:42;35.23;;;0.80;;
3817;SDS011;1924;48.078;11.516;2022-07-23T09:43:10;34.97;;;0.80;;
3817;SDS011;1924;48.078;11.516;2022-07-23T09:45:37;35.10;;;0.80;;
3817;SDS011;1924;48.078;11.516;2022-07-23T09:48:12;35.30;;;0.80;;
3817;SDS011;1924;48.078;11.516;2022-07-23T09:50:40;35.10;;;0.80;;
3817;SDS011;1924;48.078;11.516;2022-07-23T09:53:08;35.23;;;0.80;;
3817;SDS011;1924;48.078;11.516;2022-07-23T09:55:49;35.13;;;0.80;;
3817;SDS011;1924;48.078;11.516;2022-07-23T09:58:20;35.13;;;0.80;;
3817;SDS011;1924;48.078;11.516;2022-07-23T10:00:48;35.20;;;0.80;;
3817;SDS011;1924;48.078;11.516;2022-07-23T10:03:18;35.13;;;0.80;;
3817;SDS011;1924;48.078;11.516;2022-07-23T10:05:46;35.00;;;0.80;;
3817;SDS011;1924;48.078;11.516;2022-07-23T10:08:14;35.00;;;0.80;;
3817;SDS011;1924;48.078;11.516;2022-07-23T10:10:44;34.83;;;0.80;;
3817;SDS011;1924;48.078;11.516;2022-07-23T10:13:12;34.87;;;0.80;;
3817;SDS011;1924;48.078;11.516;2022-07-23T10:16:00;34.67;;;0.80;;
3817;SDS011;1924;48.078;11.516;2022-07-23T10:18:29;34.70;;;0.80;;
3817;SDS011;1924;48.078;11.516;2022-07-23T10:20:56;34.67;;;0.80;;
3817;SDS011;1924;48.078;11.516;2022-07-23T10:23:27;34.53;;;0.80;;
3817;SDS011;1924;48.078;11.516;2022-07-23T10:26:03;34.47;;;0.80;;
3817;SDS011;1924;48.078;11.516;2022-07-23T10:28:44;34.40;;;0.80;;
3817;SDS011;1924;48.078;11.516;2022-07-23T10:31:26;34.33;;;0.80;;
3817;SDS011;1924;48.078;11.516;2022-07-23T10:34:15;34.43;;;0.80;;
3817;SDS011;1924;48.078;11.516;2022-07-23T10:36:48;34.50;;;0.80;;
3817;SDS011;1924;48.078;11.516;2022-07-23T10:39:22;34.40;;;0.80;;
3817;SDS011;1924;48.078;11.516;2022-07-23T10:41:50;34.30;;;0.80;;
3817;SDS011;1924;48.078;11.516;2022-07-23T10:44:18;34.23;;;0.80;;
3817;SDS011;1924;48.078;11.516;2022-07-23T10:46:55;33.90;;;0.80;;
3817;SDS011;1924;48.078;11.516;2022-07-23T10:49:38;34.13;;;0.80;;
3817;SDS011;1924;48.078;11.516;2022-07-23T10:52:24;34.10;;;0.80;;
3817;SDS011;1924;48.078;11.516;2022-07-23T10:54:53;34.07;;;0.80;;
3817;SDS011;1924;48.078;11.516;2022-07-23T10:57:23;33.83;;;0.80;;
3817;SDS011;1924;48.078;11.516;2022-07-23T11:02:47;34.10;;;0.80;;
3817;SDS011;1924;48.078;11.516;2022-07-23T11:05:16;34.00;;;0.80;;
3817;SDS011;1924;48.078;11.516;2022-07-23T11:10:40;34.17;;;0.80;;
3817;SDS011;1924;48.078;11.516;2022-07-23T11:18:55;34.17;;;0.80;;
3817;SDS011;1924;48.078;11.516;2022-07-23T11:21:44;34.17;;;0.80;;
3817;SDS011;1924;48.078;11.516;2022-07-23T11:24:13;34.10;;;0.80;;
3817;SDS011;1924;48.078;11.516;2022-07-23T11:26:52;34.00;;;0.80;;
3817;SDS011;1924;48.078;11.516;2022-07-23T11:29:43;34.03;;;0.80;;
3817;SDS011;1924;48.078;11.516;2022-07-23T11:32:23;34.13;;;0.80;;
3817;SDS011;1924;48.078;11.516;2022-07-23T11:35:00;34.10;;;0.80;;
3817;SDS011;1924;48.078;11.516;2022-07-23T11:37:36;34.13;;;0.80;;
3817;SDS011;1924;48.078;11.516;2022-07-23T11:40:06;34.10;;;0.80;;
3817;SDS011;1924;48.078;11.516;2022-07-23T11:42:35;34.10;;;0.80;;
3817;SDS011;1924;48.078;11.516;2022-07-23T11:45:04;33.97;;;0.80;;
3817;SDS011;1924;48.078;11.516;2022-07-23T11:47:33;34.10;;;0.80;;
3817;SDS011;1924;48.078;11.516;2022-07-23T11:50:05;34.00;;;0.80;;
3817;SDS011;1924;48.078;11.516;2022-07-23T11:52:32;34.17;;;0.80;;
3817;SDS011;1924;48.078;11.516;2022-07-23T11:55:02;34.13;;;0.80;;
3817;SDS011;1924;48.078;11.516;2022-07-23T11:57:32;34.07;;;0.80;;
3817;SDS011;1924;48.078;11.516;2022-07-23T12:00:02;34.00;;;0.80;;
3817;SDS011;1924;48.078;11.516;2022-07-23T12:02:34;34.13;;;0.80;;
3817;SDS011;1924;48.078;11.516;2022-07-23T12:05:01;34.10;;;0.80;;
3817;SDS011;1924;48.078;11.516;2022-07-23T12:07:29;34.03;;;0.80;;
3817;SDS011;1924;48.078;11.516;2022-07-23T12:10:14;33.90;;;0.80;;
3817;SDS011;1924;48.078;11.516;2022-07-23T12:12:42;34.03;;;0.80;;
3817;SDS011;1924;48.078;11.516;2022-07-23T12:15:12;33.97;;;0.80;;
3817;SDS011;1924;48.078;11.516;2022-07-23T12:17:45;34.10;;;0.80;;
3817;SDS011;1924;48.078;11.516;2022-07-23T12:20:13;33.77;;;0.80;;
3817;SDS011;1924;48.078;11.516;2022-07-23T12:22:43;34.10;;;0.80;;
3817;SDS011;1924;48.078;11.516;2022-07-23T12:25:14;34.20;;;0.80;;
3817;SDS011;1924;48.078;11.516;2022-07-23T12:27:41;34.17;;;0.80;;
3817;SDS011;1924;48.078;11.516;2022-07-23T12:30:16;34.00;;;0.80;;
3817;SDS011;1924;48.078;11.516;2022-07-23T12:32:47;34.07;;;0.80;;
3817;SDS011;1924;48.078;11.516;2022-07-23T12:35:20;34.10;;;0.80;;
3817;SDS011;1924;48.078;11.516;2022-07-23T12:37:48;34.07;;;0.80;;
3817;SDS011;1924;48.078;11.516;2022-07-23T12:40:19;34.50;;;0.80;;
3817;SDS011;1924;48.078;11.516;2022-07-23T12:42:59;34.13;;;0.80;;
3817;SDS011;1924;48.078;11.516;2022-07-23T12:45:28;34.00;;;0.80;;
3817;SDS011;1924;48.078;11.516;2022-07-23T12:48:14;34.00;;;0.80;;
3817;SDS011;1924;48.078;11.516;2022-07-23T12:50:43;34.10;;;0.80;;
3817;SDS011;1924;48.078;11.516;2022-07-23T12:53:14;34.10;;;0.80;;
3817;SDS011;1924;48.078;11.516;2022-07-23T12:55:45;34.10;;;0.80;;
3817;SDS011;1924;48.078;11.516;2022-07-23T12:58:17;34.00;;;0.80;;
3817;SDS011;1924;48.078;11.516;2022-07-23T13:00:55;33.73;;;0.80;;
3817;SDS011;1924;48.078;11.516;2022-07-23T13:03:25;33.97;;;0.80;;
3817;SDS011;1924;48.078;11.516;2022-07-23T13:05:53;33.57;;;0.80;;
3817;SDS011;1924;48.078;11.516;2022-07-23T13:08:21;34.03;;;0.80;;
3817;SDS011;1924;48.078;11.516;2022-07-23T13:10:54;33.90;;;0.80;;
3817;SDS011;1924;48.078;11.516;2022-07-23T13:13:21;33.87;;;0.80;;
3817;SDS011;1924;48.078;11.516;2022-07-23T13:15:49;33.97;;;0.80;;
3817;SDS011;1924;48.078;11.516;2022-07-23T13:18:20;33.83;;;0.80;;
3817;SDS011;1924;48.078;11.516;2022-07-23T13:20:47;34.00;;;0.80;;
3817;SDS011;1924;48.078;11.516;2022-07-23T13:23:15;33.97;;;0.80;;
3817;SDS011;1924;48.078;11.516;2022-07-23T13:25:43;34.13;;;0.80;;
3817;SDS011;1924;48.078;11.516;2022-07-23T13:28:11;33.97;;;0.80;;
3817;SDS011;1924;48.078;11.516;2022-07-23T13:30:38;34.10;;;0.80;;
3817;SDS011;1924;48.078;11.516;2022-07-23T13:33:06;33.90;;;0.80;;
3817;SDS011;1924;48.078;11.516;2022-07-23T13:35:33;34.10;;;0.80;;
3817;SDS011;1924;48.078;11.516;2022-07-23T13:38:01;33.97;;;0.80;;
3817;SDS011;1924;48.078;11.516;2022-07-23T13:40:29;33.93;;;0.80;;
3817;SDS011;1924;48.078;11.516;2022-07-23T13:42:56;34.00;;;0.80;;
3817;SDS011;1924;48.078;11.516;2022-07-23T13:45:28;33.90;;;0.80;;
3817;SDS011;1924;48.078;11.516;2022-07-23T13:47:58;33.90;;;0.80;;
3817;SDS011;1924;48.078;11.516;2022-07-23T13:50:27;33.97;;;0.80;;
3817;SDS011;1924;48.078;11.516;2022-07-23T13:52:54;33.97;;;0.80;;
3817;SDS011;1924;48.078;11.516;2022-07-23T13:55:21;34.10;;;0.80;;
3817;SDS011;1924;48.078;11.516;2022-07-23T13:57:48;34.10;;;0.80;;
3817;SDS011;1924;48.078;11.516;2022-07-23T14:00:17;33.97;;;0.80;;
3817;SDS011;1924;48.078;11.516;2022-07-23T14:02:48;33.90;;;0.80;;
3817;SDS011;1924;48.078;11.516;2022-07-23T14:05:21;33.90;;;0.80;;
3817;SDS011;1924;48.078;11.516;2022-07-23T14:07:49;34.00;;;0.80;;
3817;SDS011;1924;48.078;11.516;2022-07-23T14:10:17;34.00;;;0.80;;
3817;SDS011;1924;48.078;11.516;2022-07-23T14:12:48;33.93;;;0.80;;
3817;SDS011;1924;48.078;11.516;2022-07-23T14:15:24;34.07;;;0.80;;
3817;SDS011;1924;48.078;11.516;2022-07-23T14:17:54;33.93;;;0.80;;
3817;SDS011;1924;48.078;11.516;2022-07-23T14:20:21;34.00;;;0.80;;
3817;SDS011;1924;48.078;11.516;2022-07-23T14:22:50;33.90;;;0.80;;
3817;SDS011;1924;48.078;11.516;2022-07-23T14:25:19;34.07;;;0.80;;
3817;SDS011;1924;48.078;11.516;2022-07-23T14:27:48;33.93;;;0.80;;
3817;SDS011;1924;48.078;11.516;2022-07-23T14:30:15;34.00;;;0.80;;
3817;SDS011;1924;48.078;11.516;2022-07-23T14:32:45;34.07;;;0.80;;
3817;SDS011;1924;48.078;11.516;2022-07-23T14:35:13;33.87;;;0.80;;
3817;SDS011;1924;48.078;11.516;2022-07-23T14:37:41;33.90;;;0.80;;
3817;SDS011;1924;48.078;11.516;2022-07-23T14:40:11;33.90;;;0.80;;
3817;SDS011;1924;48.078;11.516;2022-07-23T14:42:38;33.90;;;0.80;;
3817;SDS011;1924;48.078;11.516;2022-07-23T14:45:05;33.67;;;0.80;;
3817;SDS011;1924;48.078;11.516;2022-07-23T14:47:39;33.97;;;0.80;;
3817;SDS011;1924;48.078;11.516;2022-07-23T14:50:06;33.90;;;0.80;;
3817;SDS011;1924;48.078;11.516;2022-07-23T14:52:37;33.90;;;0.80;;
3817;SDS011;1924;48.078;11.516;2022-07-23T14:55:07;33.90;;;0.80;;
3817;SDS011;1924;48.078;11.516;2022-07-23T14:57:34;34.03;;;0.80;;
3817;SDS011;1924;48.078;11.516;2022-07-23T15:00:01;33.93;;;0.80;;
3817;SDS011;1924;48.078;11.516;2022-07-23T15:02:29;33.90;;;0.80;;
3817;SDS011;1924;48.078;11.516;2022-07-23T15:04:59;33.77;;;0.80;;
3817;SDS011;1924;48.078;11.516;2022-07-23T15:07:27;33.77;;;0.80;;
3817;SDS011;1924;48.078;11.516;2022-07-23T15:09:56;33.77;;;0.80;;
3817;SDS011;1924;48.078;11.516;2022-07-23T15:12:26;33.70;;;0.80;;
3817;SDS011;1924;48.078;11.516;2022-07-23T15:14:53;33.87;;;0.80;;